首页
METAR-TAF:

METAR-TAF

机场 :

Saint-Yan, 法国

纬度: 46-24-45N, 经度: 004-00-48E, 海拔: 244米

当前天气观测

该预报发布于11分钟前的09:30 UTC
风速5节,风向北转东北,在之间变化
温度 21°C
湿度 49%
气压 1017 hPa
能见度10公里或以上
1500米以下无云,无积雨云

METAR: LFLN 010930Z AUTO 03005KT 360V080 CAVOK 21/10 Q1017 TEMPO FEW070CB

时间: 11:41 (09:41 UTC)

预报

该预报发布于1小时和41分钟前的08:00 UTC
预报有效从01日的 09点(UTC)到 01日的 18点(UTC)
风速5节,风向
能见度10公里或以上
少量云层高于7000英尺, 塔状积云.
短暂存在
从 01日的 09点(UTC)到 01日的 13点(UTC)
少量云层高于7000英尺, 积雨云.
小阵雨
短暂存在
从 01日的 13点(UTC)到 01日的 18点(UTC)
风速15节,风向东南,有时为25节阵风
能見度: 4000
散云层高于6000英尺, 积雨云.
阵雨
几率 40% :
短暂存在
从 01日的 15点(UTC)到 01日的 18点(UTC)
多云层高于6000英尺, 积雨云.
雷暴, 雨

TAF: LFLN 010800Z 0109/0118 08005KT 9999 FEW070TCU TEMPO 0109/0113 -SHRA FEW070CB TEMPO 0113/0118 13015G25KT 4000 SHRA SCT060CB PROB40 TEMPO 0115/0118 TSRA BKN060CB

超过4000个机场的气象观测和天气预报(METAR&TAF报告)。

可查询的气象台以黄色和红色小点在地图上表示。

将鼠标移到小点上方,可查看气象台名称。

然后点击查看天气观测和预报。

如需切换地图:点击带黑十字的绿色按钮放大地图;点击带横线的绿色按钮缩小地图;或者点击绿色箭头查看邻近地区的地图。


METAR-TAF: